Flugplatz Halle-Oppin Airport

Für Halle-Oppin Airport sind keine METAR/TAF Berichte vorhanden.
Es werden die Flugwettermeldungen vom Flugplatz Leipzig/Halle Airport in 18 km Entfernung angezeigt.

Bericht für EDDP

vom 15.07. um 03:50 UTC

Wind 6 kt aus 160°

Sichtweite 9700 m

gute Sicht, keine Wolken < 5000 ft, keine CB, keine Wettererscheinungen (CAVOK)

Temperatur 16°C

Taupunkt 13°C

Luftfeuchtigkeit 82%

Luftdruck 1014 hPa

keine wesentliche Wetteränderung innerhalb den nächsten 2 Stunden zu erwarten

EDDP 150350Z AUTO 16006KT CAVOK 16/13 Q1014 NOSIG

Prognose für EDDP

vom 14.07. um 23:00 UTC

Zwischen 00:00 UTC und 07:00 UTC

Wind 4 kt aus 160°

Sichtweite 9700 m

keine signifikanten Wettererscheinungen

keine Wolken


Zwischen 07:00 und 09:00 UTC übergehend zu

Wind 6 kt aus 220°

Sichtweite 9700 m

keine signifikanten Wettererscheinungen

keine Wolken


Zwischen 17:00 und 19:00 UTC übergehend zu

Wind 4 kt aus 60°

Sichtweite 9700 m

keine signifikanten Wettererscheinungen

keine Wolken

TAF EDDP 142300Z 1500/1524 16004KT CAVOK BECMG 1507/1509 22006KT BECMG 1517/1519 06004KT
Impressum